Bloomington, Idaho
Current Conditions -  °F | °C
As of 2:02 PM on Saturday 20 Dec 2014 (Local Time) from KLGU Reporting Station
Overcast Overcast  
Wind Chill:   Ceiling: 4400
Heat Index:   Visibility: 10mi
Dew Point:   Wind: 5mph
Humidity: 89%   Direction: 50°NE
Pressure: 30.05"   Gusts: NA
Location:  42.19°N, 111.4°W
Report Text: KLGU 202102Z AUTO 05004KT 10SM FEW006 BKN044 OVC055 03/02 A3005 RMK AO2 RAB2052E02 P0000 T00330017
Loading
Personal Weather Stations






























Interactive Weather Map New forecast layout! Learn more

10-Day Weather Forecast

Advertisements
Track Severe Weather on mobile